createdAt,value
2023-02-18T00:01:30.843Z,8.14
2023-02-18T00:04:03.346Z,8.16
2023-02-18T00:06:36.880Z,8.14
2023-02-18T00:09:09.151Z,8.14
2023-02-18T00:11:41.384Z,8.10
2023-02-18T00:14:16.882Z,8.08
2023-02-18T00:16:48.806Z,8.08
2023-02-18T00:19:21.709Z,8.03
2023-02-18T00:21:53.433Z,8.01
2023-02-18T00:24:25.158Z,7.95
2023-02-18T00:26:56.866Z,7.93
2023-02-18T00:29:28.624Z,7.93
2023-02-18T00:32:00.565Z,7.90
2023-02-18T00:34:33.968Z,7.90
2023-02-18T00:37:08.545Z,7.88
2023-02-18T00:39:40.269Z,7.87
2023-02-18T00:42:12.961Z,7.81
2023-02-18T00:44:44.880Z,7.77
2023-02-18T00:47:16.968Z,7.77
2023-02-18T00:49:48.838Z,7.75
2023-02-18T00:52:20.544Z,7.74
2023-02-18T00:54:52.280Z,7.71
2023-02-18T00:57:24.092Z,7.68
2023-02-18T00:59:55.792Z,7.69
2023-02-18T01:02:27.558Z,7.67
2023-02-18T01:04:59.489Z,7.65
2023-02-18T01:07:31.549Z,7.63
2023-02-18T01:10:04.580Z,7.62
2023-02-18T01:12:36.518Z,7.62
2023-02-18T01:15:10.281Z,7.57
2023-02-18T01:17:41.995Z,7.57
2023-02-18T01:20:16.090Z,7.54
2023-02-18T01:22:47.907Z,7.54
2023-02-18T01:25:19.928Z,7.55
2023-02-18T01:27:51.729Z,7.51
2023-02-18T01:30:24.094Z,7.48
2023-02-18T01:32:56.625Z,7.48
2023-02-18T01:35:28.372Z,7.50
2023-02-18T01:38:00.250Z,7.49
2023-02-18T01:40:32.645Z,7.48
2023-02-18T01:43:05.344Z,7.42
2023-02-18T01:46:04.433Z,7.41
2023-02-18T01:48:40.588Z,7.37
2023-02-18T01:51:15.916Z,7.33
2023-02-18T01:53:54.009Z,7.30
2023-02-18T01:56:30.441Z,7.32
2023-02-18T01:59:06.552Z,7.29
2023-02-18T02:01:40.487Z,7.28
2023-02-18T02:04:13.925Z,7.18
2023-02-18T02:06:46.374Z,7.16
2023-02-18T02:09:21.161Z,7.09
2023-02-18T02:12:22.098Z,7.10
2023-02-18T02:15:09.816Z,7.09
2023-02-18T02:18:06.194Z,7.06
2023-02-18T02:21:02.660Z,7.03
2023-02-18T02:23:58.429Z,7.00
2023-02-18T02:27:07.100Z,6.95
2023-02-18T02:30:25.352Z,6.93
2023-02-18T02:33:22.245Z,6.93
2023-02-18T02:36:01.039Z,6.92
2023-02-18T02:38:40.216Z,6.92
2023-02-18T02:41:23.416Z,6.94
2023-02-18T02:44:03.187Z,6.97
2023-02-18T02:46:41.638Z,6.95
2023-02-18T02:49:25.671Z,6.99
2023-02-18T02:52:04.941Z,6.98
2023-02-18T02:54:37.115Z,6.97
2023-02-18T02:57:31.353Z,6.98
2023-02-18T03:00:17.014Z,6.99
2023-02-18T03:03:08.775Z,7.02
2023-02-18T03:05:54.344Z,7.03
2023-02-18T03:08:38.926Z,7.01
2023-02-18T03:11:14.121Z,6.99
2023-02-18T03:13:58.614Z,6.96
2023-02-18T03:16:42.418Z,6.97
2023-02-18T03:19:23.442Z,6.98
2023-02-18T03:22:01.738Z,6.98
2023-02-18T03:24:37.403Z,7.02
2023-02-18T03:27:15.503Z,7.01
2023-02-18T03:29:52.245Z,7.02
2023-02-18T03:32:26.699Z,7.03
2023-02-18T03:35:03.143Z,6.99
2023-02-18T03:37:40.038Z,7.02
2023-02-18T03:40:13.654Z,7.01
2023-02-18T03:42:45.573Z,7.03
2023-02-18T03:45:17.554Z,7.01
2023-02-18T03:47:49.984Z,7.00
2023-02-18T03:50:22.768Z,6.99
2023-02-18T03:52:54.388Z,6.97
2023-02-18T03:55:26.107Z,6.97
2023-02-18T03:57:57.831Z,6.99
2023-02-18T04:00:29.600Z,6.98
2023-02-18T04:03:01.286Z,6.97
2023-02-18T04:05:33.155Z,7.00
2023-02-18T04:08:05.622Z,6.99
2023-02-18T04:10:37.722Z,6.98
2023-02-18T04:13:09.443Z,6.95
2023-02-18T04:15:41.121Z,6.95
2023-02-18T04:18:13.711Z,6.94
2023-02-18T04:20:46.627Z,6.93
2023-02-18T04:23:18.697Z,6.93
2023-02-18T04:25:50.541Z,6.95
2023-02-18T04:28:22.613Z,6.94
2023-02-18T04:30:54.569Z,6.90
2023-02-18T04:33:26.719Z,6.92
2023-02-18T04:35:58.576Z,6.90
2023-02-18T04:38:30.365Z,6.89
2023-02-18T04:41:02.381Z,6.92
2023-02-18T04:43:34.078Z,6.90
2023-02-18T04:46:06.198Z,6.89
2023-02-18T04:48:38.788Z,6.91
2023-02-18T04:51:10.972Z,6.87
2023-02-18T04:53:42.729Z,6.86
2023-02-18T04:56:14.425Z,6.84
2023-02-18T04:58:46.202Z,6.84
2023-02-18T05:01:17.936Z,6.83
2023-02-18T05:03:49.670Z,6.82
2023-02-18T05:06:21.899Z,6.78
2023-02-18T05:08:53.664Z,6.80
2023-02-18T05:11:25.364Z,6.81
2023-02-18T05:13:57.070Z,6.77
2023-02-18T05:16:28.881Z,6.79
2023-02-18T05:19:00.973Z,6.77
2023-02-18T05:21:33.183Z,6.78
2023-02-18T05:24:05.195Z,6.80
2023-02-18T05:26:37.008Z,6.77
2023-02-18T05:29:08.824Z,6.74
2023-02-18T05:31:40.683Z,6.69
2023-02-18T05:34:12.465Z,6.68
2023-02-18T05:36:45.198Z,6.67
2023-02-18T05:39:15.323Z,6.64
2023-02-18T05:41:47.026Z,6.63
2023-02-18T05:44:33.888Z,6.59
2023-02-18T05:47:09.321Z,6.59
2023-02-18T05:49:44.573Z,6.60
2023-02-18T05:52:16.818Z,6.62
2023-02-18T05:54:48.893Z,6.63
2023-02-18T05:57:21.089Z,6.60
2023-02-18T05:59:53.137Z,6.64
2023-02-18T06:02:24.978Z,6.64
2023-02-18T06:04:56.724Z,6.67
2023-02-18T06:07:28.559Z,6.64
2023-02-18T06:10:00.285Z,6.61
2023-02-18T06:12:32.171Z,6.56
2023-02-18T06:15:03.907Z,6.57
2023-02-18T06:17:35.900Z,6.59
2023-02-18T06:20:09.760Z,6.57
2023-02-18T06:22:42.049Z,6.58
2023-02-18T06:25:14.087Z,6.60
2023-02-18T06:27:45.806Z,6.59
2023-02-18T06:30:18.047Z,6.62
2023-02-18T06:32:49.848Z,6.61
2023-02-18T06:35:21.658Z,6.61
2023-02-18T06:37:53.383Z,6.59
2023-02-18T06:40:25.090Z,6.59
2023-02-18T06:42:56.823Z,6.62
2023-02-18T06:45:28.905Z,6.62
2023-02-18T06:48:00.612Z,6.57
2023-02-18T06:50:32.739Z,6.56
2023-02-18T06:53:04.828Z,6.58
2023-02-18T06:55:36.565Z,6.54
2023-02-18T06:58:08.260Z,6.55
2023-02-18T07:00:40.158Z,6.58
2023-02-18T07:03:16.738Z,6.62
2023-02-18T07:05:49.055Z,6.62
2023-02-18T07:08:21.056Z,6.64
2023-02-18T07:10:52.937Z,6.66
2023-02-18T07:13:24.665Z,6.64
2023-02-18T07:15:56.524Z,6.65
2023-02-18T07:18:28.342Z,6.66
2023-02-18T07:21:01.061Z,6.65
2023-02-18T07:23:33.287Z,6.67
2023-02-18T07:26:11.480Z,6.67
2023-02-18T07:28:44.402Z,6.72
2023-02-18T07:31:20.137Z,6.74
2023-02-18T07:33:52.046Z,6.79
2023-02-18T07:36:25.487Z,6.82
2023-02-18T07:38:57.725Z,6.84
2023-02-18T07:41:29.556Z,6.85
2023-02-18T07:44:01.903Z,6.84
2023-02-18T07:46:33.798Z,6.88
2023-02-18T07:49:05.627Z,6.92
2023-02-18T07:51:38.884Z,6.94
2023-02-18T07:54:11.401Z,6.92
2023-02-18T07:56:43.736Z,6.90
2023-02-18T07:59:16.127Z,6.91
2023-02-18T08:01:48.354Z,6.94
2023-02-18T08:04:20.428Z,6.99
2023-02-18T08:06:52.930Z,7.03
2023-02-18T08:09:24.762Z,7.04
2023-02-18T08:11:56.719Z,7.02
2023-02-18T08:14:28.478Z,7.04
2023-02-18T08:17:00.325Z,7.14
2023-02-18T08:19:32.120Z,7.20
2023-02-18T08:22:06.535Z,7.18
2023-02-18T08:24:39.310Z,7.22
2023-02-18T08:27:11.133Z,7.22
2023-02-18T08:29:43.009Z,7.19
2023-02-18T08:32:14.877Z,7.23
2023-02-18T08:34:46.650Z,7.24
2023-02-18T08:37:18.424Z,7.25
2023-02-18T08:39:50.177Z,7.28
2023-02-18T08:42:22.041Z,7.33
2023-02-18T08:44:53.797Z,7.33
2023-02-18T08:48:16.995Z,7.34
2023-02-18T08:50:17.649Z,7.33
2023-02-18T08:52:49.961Z,7.40
2023-02-18T08:55:22.177Z,7.48
2023-02-18T08:57:53.952Z,7.49
2023-02-18T09:00:26.167Z,7.55
2023-02-18T09:02:58.277Z,7.57
2023-02-18T09:05:30.369Z,7.57
2023-02-18T09:08:02.326Z,7.62
2023-02-18T09:10:34.033Z,7.68
2023-02-18T09:13:06.870Z,7.71
2023-02-18T09:15:37.295Z,7.67
2023-02-18T09:18:09.430Z,7.67
2023-02-18T09:20:42.402Z,7.71
2023-02-18T09:23:15.788Z,7.77
2023-02-18T09:25:47.869Z,7.77
2023-02-18T09:28:19.645Z,7.80
2023-02-18T09:30:51.685Z,7.85
2023-02-18T09:33:23.547Z,7.90
2023-02-18T09:35:55.277Z,7.92
2023-02-18T09:38:27.463Z,8.00
2023-02-18T09:41:01.532Z,8.00
2023-02-18T09:43:36.898Z,8.01
2023-02-18T09:46:17.928Z,8.17
2023-02-18T09:48:51.911Z,8.25
2023-02-18T09:51:23.662Z,8.37
2023-02-18T09:53:55.797Z,8.36
2023-02-18T09:56:32.406Z,8.37
2023-02-18T09:59:12.385Z,8.35
2023-02-18T10:01:45.048Z,8.39
2023-02-18T10:04:23.650Z,8.51
2023-02-18T10:06:56.203Z,8.66
2023-02-18T10:09:33.165Z,8.72
2023-02-18T10:12:14.836Z,8.77
2023-02-18T10:14:49.679Z,8.89
2023-02-18T10:17:22.837Z,9.04
2023-02-18T10:19:57.077Z,9.17
2023-02-18T10:22:29.837Z,9.19
2023-02-18T10:25:05.018Z,9.17
2023-02-18T10:27:40.948Z,9.13
2023-02-18T10:30:25.719Z,9.22
2023-02-18T10:33:14.236Z,9.27
2023-02-18T10:35:53.990Z,9.22
2023-02-18T10:38:36.772Z,9.19
2023-02-18T10:41:17.643Z,9.30
2023-02-18T10:43:56.143Z,9.44
2023-02-18T10:46:36.077Z,9.63
2023-02-18T10:49:25.441Z,9.71
2023-02-18T10:51:59.104Z,9.73
2023-02-18T10:54:51.614Z,9.86
2023-02-18T10:57:26.865Z,9.90
2023-02-18T11:00:16.569Z,9.82
2023-02-18T11:03:03.409Z,10.13
2023-02-18T11:05:39.522Z,10.17
2023-02-18T11:08:16.330Z,10.22
2023-02-18T11:10:49.996Z,10.35
2023-02-18T11:13:28.478Z,10.37
2023-02-18T11:16:17.219Z,10.25
2023-02-18T11:18:50.326Z,10.24
2023-02-18T11:21:32.615Z,10.17
2023-02-18T11:24:18.104Z,10.26
2023-02-18T11:26:52.504Z,10.34
2023-02-18T11:29:27.846Z,10.34
2023-02-18T11:32:03.136Z,10.19
2023-02-18T11:34:37.521Z,10.12
2023-02-18T11:37:19.324Z,10.07
2023-02-18T11:39:56.425Z,10.12
2023-02-18T11:42:32.239Z,10.10
2023-02-18T11:45:06.699Z,10.07
2023-02-18T11:47:59.400Z,10.17
2023-02-18T11:50:37.617Z,10.14
2023-02-18T11:53:32.873Z,10.06
2023-02-18T11:56:20.189Z,9.86
2023-02-18T11:58:57.437Z,9.65
2023-02-18T12:01:42.871Z,9.59
2023-02-18T12:04:17.855Z,9.60
2023-02-18T12:07:03.056Z,9.68
2023-02-18T12:09:42.894Z,9.58
2023-02-18T12:12:36.197Z,9.42
2023-02-18T12:15:11.055Z,9.04
2023-02-18T12:18:06.626Z,8.90
2023-02-18T12:20:55.455Z,8.80
2023-02-18T12:23:34.742Z,8.75
2023-02-18T12:26:19.411Z,8.68
2023-02-18T12:29:06.258Z,8.45
2023-02-18T12:31:59.419Z,8.23
2023-02-18T12:34:45.148Z,8.09
2023-02-18T12:37:54.018Z,8.08
2023-02-18T12:40:42.004Z,8.06
2023-02-18T12:43:23.348Z,7.91
2023-02-18T12:46:16.148Z,7.69
2023-02-18T12:49:11.991Z,7.62
2023-02-18T12:51:58.438Z,7.57
2023-02-18T12:54:52.294Z,7.42
2023-02-18T12:57:40.143Z,7.34
2023-02-18T13:00:39.720Z,7.19
2023-02-18T13:03:47.112Z,7.16
2023-02-18T13:06:49.390Z,7.00
2023-02-18T13:09:34.740Z,6.82
2023-02-18T13:12:14.941Z,6.63
2023-02-18T13:14:51.721Z,6.58
2023-02-18T13:17:25.467Z,6.50
2023-02-18T13:20:00.819Z,6.45
2023-02-18T13:22:34.141Z,6.40
2023-02-18T13:25:06.548Z,6.48
2023-02-18T13:27:44.825Z,6.39
2023-02-18T13:30:27.589Z,6.43
2023-02-18T13:33:11.268Z,6.48
2023-02-18T13:35:49.632Z,6.50
2023-02-18T13:38:47.222Z,6.54
2023-02-18T13:41:19.908Z,6.48
2023-02-18T13:43:50.203Z,6.33
2023-02-18T13:46:23.149Z,6.32
2023-02-18T13:49:05.234Z,6.22
2023-02-18T13:51:42.369Z,6.17
2023-02-18T13:54:21.446Z,6.21
2023-02-18T13:56:59.329Z,6.19
2023-02-18T13:59:38.523Z,6.11
2023-02-18T14:02:35.022Z,6.08
2023-02-18T14:05:25.736Z,6.05
2023-02-18T14:08:12.783Z,6.05
2023-02-18T14:11:05.010Z,6.05
2023-02-18T14:13:44.832Z,6.06
2023-02-18T14:16:16.894Z,6.10
2023-02-18T14:19:02.953Z,6.13
2023-02-18T14:21:43.576Z,6.02
2023-02-18T14:24:35.515Z,6.08
2023-02-18T14:27:21.902Z,6.04
2023-02-18T14:29:54.873Z,6.05
2023-02-18T14:32:28.029Z,5.97
2023-02-18T14:35:31.898Z,5.97
2023-02-18T14:38:26.338Z,5.99
2023-02-18T14:41:15.386Z,5.97
2023-02-18T14:44:05.636Z,6.01
2023-02-18T14:46:48.618Z,6.04
2023-02-18T14:49:25.832Z,6.05
2023-02-18T14:52:00.796Z,6.15
2023-02-18T14:54:32.983Z,6.13
2023-02-18T14:57:10.318Z,6.04
2023-02-18T14:59:44.273Z,6.02
2023-02-18T15:02:23.661Z,5.98
2023-02-18T15:04:55.489Z,6.00
2023-02-18T15:07:27.302Z,6.03
2023-02-18T15:10:00.759Z,6.00
2023-02-18T15:12:33.213Z,5.98
2023-02-18T15:15:07.686Z,5.95
2023-02-18T15:17:45.506Z,5.97
2023-02-18T15:20:18.364Z,5.96
2023-02-18T15:22:49.330Z,6.01
2023-02-18T15:25:21.279Z,5.93
2023-02-18T15:27:55.016Z,5.90
2023-02-18T15:30:31.173Z,5.96
2023-02-18T15:33:03.564Z,5.88
2023-02-18T15:35:35.549Z,5.83
2023-02-18T15:38:07.296Z,5.86
2023-02-18T15:40:40.955Z,5.83
2023-02-18T15:43:20.181Z,5.90
2023-02-18T15:45:55.714Z,6.04
2023-02-18T15:48:33.741Z,6.10
2023-02-18T15:51:17.459Z,6.05
2023-02-18T15:53:52.661Z,6.01
2023-02-18T15:56:31.358Z,5.87
2023-02-18T15:59:18.633Z,5.85
2023-02-18T16:01:53.771Z,5.85
2023-02-18T16:04:30.711Z,5.82
2023-02-18T16:07:05.889Z,5.84
2023-02-18T16:09:40.898Z,5.81
2023-02-18T16:12:23.774Z,5.73
2023-02-18T16:14:59.015Z,5.78
2023-02-18T16:17:32.311Z,5.70
2023-02-18T16:20:16.392Z,5.68
2023-02-18T16:22:52.309Z,5.58
2023-02-18T16:25:28.339Z,5.60
2023-02-18T16:28:13.877Z,5.56
2023-02-18T16:30:46.403Z,5.62
2023-02-18T16:33:18.737Z,5.66
2023-02-18T16:35:51.157Z,5.71
2023-02-18T16:38:26.102Z,5.71
2023-02-18T16:40:57.881Z,5.69
2023-02-18T16:43:32.691Z,5.71
2023-02-18T16:46:14.486Z,5.65
2023-02-18T16:48:50.480Z,5.57
2023-02-18T16:51:26.013Z,5.50
2023-02-18T16:53:58.618Z,5.46
2023-02-18T16:56:32.189Z,5.49
2023-02-18T16:59:04.038Z,5.55
2023-02-18T17:01:38.256Z,5.47
2023-02-18T17:04:14.966Z,5.47
2023-02-18T17:06:48.610Z,5.47
2023-02-18T17:09:22.964Z,5.40
2023-02-18T17:11:57.025Z,5.38
2023-02-18T17:14:29.468Z,5.35
2023-02-18T17:17:02.677Z,5.35
2023-02-18T17:19:34.730Z,5.35
2023-02-18T17:22:06.822Z,5.34
2023-02-18T17:24:38.551Z,5.39
2023-02-18T17:27:12.267Z,5.39
2023-02-18T17:29:44.759Z,5.39
2023-02-18T17:32:16.629Z,5.39
2023-02-18T17:34:49.070Z,5.44
2023-02-18T17:37:20.806Z,5.49
2023-02-18T17:39:53.200Z,5.55
2023-02-18T17:42:25.311Z,5.47
2023-02-18T17:44:57.266Z,5.44
2023-02-18T17:47:29.546Z,5.49
2023-02-18T17:50:01.943Z,5.48
2023-02-18T17:52:36.294Z,5.49
2023-02-18T17:55:18.590Z,5.52
2023-02-18T17:57:51.484Z,5.45
2023-02-18T18:00:26.278Z,5.42
2023-02-18T18:02:58.047Z,5.34
2023-02-18T18:05:33.084Z,5.33
2023-02-18T18:08:06.262Z,5.31
2023-02-18T18:10:40.822Z,5.30
2023-02-18T18:13:20.016Z,5.24
2023-02-18T18:15:55.131Z,5.26
2023-02-18T18:18:28.573Z,5.27
2023-02-18T18:21:02.686Z,5.24
2023-02-18T18:23:34.594Z,5.23
2023-02-18T18:26:06.474Z,5.17
2023-02-18T18:28:38.338Z,5.24
2023-02-18T18:31:16.185Z,5.18
2023-02-18T18:33:50.473Z,5.12
2023-02-18T18:36:24.008Z,5.14
2023-02-18T18:38:55.994Z,5.14
2023-02-18T18:41:27.728Z,5.16
2023-02-18T18:43:59.505Z,5.12
2023-02-18T18:46:31.460Z,5.19
2023-02-18T18:49:06.520Z,5.20
2023-02-18T18:51:38.236Z,5.19
2023-02-18T18:54:10.748Z,5.16
2023-02-18T18:56:42.678Z,5.18
2023-02-18T18:59:14.547Z,5.14
2023-02-18T19:01:46.326Z,5.10
2023-02-18T19:04:19.250Z,5.16
2023-02-18T19:06:52.238Z,5.14
2023-02-18T19:09:24.023Z,5.07
2023-02-18T19:11:55.689Z,5.08
2023-02-18T19:14:27.690Z,5.06
2023-02-18T19:16:59.892Z,5.09
2023-02-18T19:19:31.942Z,5.03
2023-02-18T19:22:03.743Z,4.99
2023-02-18T19:24:35.586Z,4.99
2023-02-18T19:27:07.458Z,5.06
2023-02-18T19:29:39.246Z,5.03
2023-02-18T19:32:11.111Z,4.98
2023-02-18T19:34:42.909Z,4.94
2023-02-18T19:37:14.705Z,4.92
2023-02-18T19:39:46.574Z,4.93
2023-02-18T19:42:18.550Z,4.88
2023-02-18T19:44:50.308Z,5.02
2023-02-18T19:47:22.745Z,5.03
2023-02-18T19:49:55.561Z,5.05
2023-02-18T19:52:25.819Z,5.05
2023-02-18T19:54:58.082Z,5.01
2023-02-18T19:57:29.949Z,5.04
2023-02-18T20:00:01.817Z,5.03
2023-02-18T20:02:34.391Z,4.95
2023-02-18T20:05:07.178Z,4.88
2023-02-18T20:07:41.418Z,4.91
2023-02-18T20:10:17.214Z,4.96
2023-02-18T20:12:54.016Z,4.91
2023-02-18T20:15:26.157Z,4.89
2023-02-18T20:17:58.175Z,4.87
2023-02-18T20:20:30.133Z,4.95
2023-02-18T20:23:02.057Z,4.86
2023-02-18T20:25:33.998Z,4.83
2023-02-18T20:28:07.764Z,4.76
2023-02-18T20:30:39.796Z,4.76
2023-02-18T20:33:11.994Z,4.75
2023-02-18T20:35:44.113Z,4.68
2023-02-18T20:38:18.044Z,4.67
2023-02-18T20:40:50.450Z,4.61
2023-02-18T20:43:22.477Z,4.61
2023-02-18T20:45:55.070Z,4.64
2023-02-18T20:48:27.326Z,4.59
2023-02-18T20:51:03.716Z,4.53
2023-02-18T20:53:37.337Z,4.41
2023-02-18T20:56:10.807Z,4.43
2023-02-18T20:58:43.206Z,4.45
2023-02-18T21:01:16.864Z,4.52
2023-02-18T21:03:50.498Z,4.51
2023-02-18T21:06:25.352Z,4.52
2023-02-18T21:08:57.400Z,4.47
2023-02-18T21:11:29.732Z,4.48
2023-02-18T21:14:02.118Z,4.47
2023-02-18T21:16:38.466Z,4.44
2023-02-18T21:19:13.279Z,4.47
2023-02-18T21:21:46.844Z,4.44
2023-02-18T21:24:19.007Z,4.46
2023-02-18T21:26:51.208Z,4.44
2023-02-18T21:29:23.182Z,4.53
2023-02-18T21:31:55.077Z,4.56
2023-02-18T21:34:27.077Z,4.54
2023-02-18T21:36:59.313Z,4.56
2023-02-18T21:39:31.074Z,4.55
2023-02-18T21:42:04.267Z,4.55
2023-02-18T21:44:42.187Z,4.47
2023-02-18T21:47:14.887Z,4.49
2023-02-18T21:49:47.029Z,4.49
2023-02-18T21:52:19.218Z,4.46
2023-02-18T21:54:54.738Z,4.50
2023-02-18T21:57:27.537Z,4.50
2023-02-18T22:00:05.787Z,4.51
2023-02-18T22:02:46.519Z,4.59
2023-02-18T22:05:18.497Z,4.58
2023-02-18T22:07:50.234Z,4.54
2023-02-18T22:10:22.370Z,4.40
2023-02-18T22:12:54.056Z,4.32
2023-02-18T22:15:26.015Z,4.28
2023-02-18T22:17:57.806Z,4.33
2023-02-18T22:20:30.071Z,4.34
2023-02-18T22:23:02.061Z,4.28
2023-02-18T22:25:33.810Z,4.29
2023-02-18T22:28:07.436Z,4.36
2023-02-18T22:30:41.872Z,4.36
2023-02-18T22:33:13.590Z,4.32
2023-02-18T22:35:45.448Z,4.27
2023-02-18T22:38:17.205Z,4.27
2023-02-18T22:40:50.860Z,4.35
2023-02-18T22:43:22.692Z,4.28
2023-02-18T22:45:54.545Z,4.29
2023-02-18T22:48:26.313Z,4.31
2023-02-18T22:50:58.614Z,4.36
2023-02-18T22:53:30.618Z,4.38
2023-02-18T22:56:05.026Z,4.32
2023-02-18T22:58:37.636Z,4.33
2023-02-18T23:01:19.431Z,4.32
2023-02-18T23:03:51.624Z,4.40
2023-02-18T23:06:24.512Z,4.42
2023-02-18T23:08:56.967Z,4.50
2023-02-18T23:11:29.278Z,4.54
2023-02-18T23:14:15.050Z,4.54
2023-02-18T23:17:08.009Z,4.47
2023-02-18T23:19:38.714Z,4.48
2023-02-18T23:22:12.341Z,4.54
2023-02-18T23:24:45.557Z,4.63
2023-02-18T23:27:18.249Z,4.60
2023-02-18T23:29:48.789Z,4.57
2023-02-18T23:32:20.799Z,4.45
2023-02-18T23:34:53.330Z,4.47
2023-02-18T23:37:39.053Z,4.54
2023-02-18T23:40:13.654Z,4.49
2023-02-18T23:42:45.561Z,4.46
2023-02-18T23:45:17.727Z,4.41
2023-02-18T23:47:49.528Z,4.45
2023-02-18T23:50:21.318Z,4.45
2023-02-18T23:52:54.344Z,4.44
2023-02-18T23:55:26.214Z,4.45
2023-02-18T23:57:58.090Z,4.52
